Time;durP1;ratioP1;P1;durP2;ratioP2;P2;SDS_P1;SDS_P2;PMS_P1;PMS_P2;Temp;Humidity;BMP_temperature;BMP_pressure;BME280_temperature;BME280_humidity;BME280_pressure;Samples;Min_cycle;Max_cycle;Signal;HPM_P1;HPM_P2
2022/06/03 00:02:25;;;;;;;8.50;7.80;;;14.80;96.40;;;;;;5052709;28;20467;-66
2022/06/03 00:05:09;;;;;;;9.23;8.37;;;14.80;96.70;;;;;;5052312;28;20803;-68
2022/06/03 00:08:05;;;;;;;8.97;8.27;;;14.80;96.80;;;;;;5051747;28;20427;-66
2022/06/03 00:19:52;;;;;;;10.37;9.43;;;14.70;97.40;;;;;;4931922;23;20489;-69
2022/06/03 00:22:29;;;;;;;9.80;9.00;;;14.30;98.50;;;;;;4917039;29;20465;-69
2022/06/03 00:25:07;;;;;;;8.27;7.53;;;13.90;99.60;;;;;;4916332;29;20448;-69
2022/06/03 00:27:49;;;;;;;8.60;7.80;;;13.70;99.90;;;;;;4915702;29;20959;-69
2022/06/03 00:30:20;;;;;;;9.50;8.80;;;13.40;99.90;;;;;;4916351;29;20424;-68
2022/06/03 00:33:27;;;;;;;9.00;8.00;;;13.30;99.90;;;;;;4914980;29;20551;-69
2022/06/03 00:35:53;;;;;;;8.50;7.90;;;13.20;99.90;;;;;;4899757;29;20519;-69
2022/06/03 00:38:56;;;;;;;7.73;7.20;;;13.20;99.90;;;;;;4916591;29;21012;-69
2022/06/03 00:41:34;;;;;;;10.50;8.20;;;13.10;99.90;;;;;;4915696;29;20240;-69
2022/06/03 00:44:14;;;;;;;7.43;6.90;;;13.10;99.90;;;;;;4915986;29;20456;-69
2022/06/03 00:47:18;;;;;;;7.70;7.10;;;13.20;99.90;;;;;;4916558;29;20431;-69
2022/06/03 00:50:22;;;;;;;8.90;8.10;;;13.20;99.90;;;;;;4915817;29;20511;-76
2022/06/03 00:53:15;;;;;;;6.87;6.47;;;13.10;99.90;;;;;;4883258;29;20444;-69
2022/06/03 00:56:15;;;;;;;7.50;6.90;;;13.10;99.90;;;;;;4919950;29;20756;-69
2022/06/03 00:58:56;;;;;;;7.40;6.90;;;13.10;99.90;;;;;;4920084;29;20421;-69
2022/06/03 01:01:24;;;;;;;8.73;8.03;;;13.10;99.90;;;;;;4919871;29;20450;-69
2022/06/03 01:03:53;;;;;;;7.97;7.30;;;13.10;99.90;;;;;;4918055;29;20445;-69
2022/06/03 01:06:28;;;;;;;8.27;7.67;;;13.10;99.90;;;;;;4919983;29;20437;-69
2022/06/03 01:09:32;;;;;;;8.30;7.60;;;13.10;99.90;;;;;;4918956;29;20823;-69
2022/06/03 01:12:16;;;;;;;8.13;7.50;;;13.20;99.90;;;;;;4918805;29;20419;-69
2022/06/03 01:14:53;;;;;;;8.50;7.80;;;13.20;99.90;;;;;;4919363;29;20408;-69
2022/06/03 01:17:35;;;;;;;8.90;8.20;;;13.20;99.90;;;;;;4869817;29;20563;-69
2022/06/03 01:20:33;;;;;;;8.03;7.33;;;13.10;99.90;;;;;;4918139;29;20826;-69
2022/06/03 01:23:42;;;;;;;7.77;7.17;;;13.10;99.90;;;;;;4898125;29;20453;-69
2022/06/03 01:26:45;;;;;;;8.90;7.50;;;13.00;99.90;;;;;;4918616;29;20832;-69
2022/06/03 01:29:14;;;;;;;8.70;7.90;;;12.90;99.90;;;;;;4918845;29;20416;-69
2022/06/03 01:32:04;;;;;;;8.10;7.33;;;13.00;99.90;;;;;;4919244;29;20463;-69
2022/06/03 01:34:56;;;;;;;8.50;7.80;;;13.00;99.90;;;;;;4918932;29;20424;-69
2022/06/03 01:37:31;;;;;;;7.77;7.17;;;13.00;99.90;;;;;;4919388;29;20438;-69
2022/06/03 01:40:22;;;;;;;9.03;8.23;;;13.00;99.90;;;;;;4915527;29;20428;-69
2022/06/03 01:43:11;;;;;;;9.10;8.30;;;13.10;99.90;;;;;;4918397;29;20951;-77
2022/06/03 01:46:04;;;;;;;8.33;7.63;;;13.10;99.90;;;;;;4919103;29;20412;-69
2022/06/03 01:48:42;;;;;;;8.90;8.20;;;13.20;99.90;;;;;;4919103;29;20424;-69
2022/06/03 01:51:31;;;;;;;8.23;7.53;;;13.20;99.90;;;;;;4918188;29;20434;-69
2022/06/03 01:54:06;;;;;;;8.40;7.70;;;13.30;99.90;;;;;;4917191;29;20495;-69
2022/06/03 01:56:58;;;;;;;8.80;8.10;;;13.20;99.90;;;;;;4918914;29;20404;-69
2022/06/03 01:59:36;;;;;;;7.80;7.20;;;13.20;99.90;;;;;;4902582;29;20444;-69
2022/06/03 02:02:26;;;;;;;8.20;7.57;;;13.20;99.90;;;;;;4899110;29;20933;-69
2022/06/03 02:05:25;;;;;;;8.87;8.20;;;13.20;99.90;;;;;;4900243;29;20511;-69
2022/06/03 02:08:26;;;;;;;8.50;7.70;;;13.20;99.90;;;;;;4917233;29;20539;-76
2022/06/03 02:11:00;;;;;;;8.87;8.07;;;13.20;99.90;;;;;;4917846;29;20414;-69
2022/06/03 02:13:51;;;;;;;8.30;7.60;;;13.10;99.90;;;;;;4916476;29;20503;-69
2022/06/03 02:16:22;;;;;;;8.77;8.07;;;13.10;99.90;;;;;;4918538;29;20448;-69
2022/06/03 02:19:07;;;;;;;8.50;7.80;;;13.10;99.90;;;;;;4917938;29;20460;-77
2022/06/03 02:21:39;;;;;;;9.63;7.80;;;13.10;99.90;;;;;;4917178;29;20819;-71
2022/06/03 02:24:40;;;;;;;8.33;7.73;;;13.10;99.90;;;;;;4898767;29;20483;-69
2022/06/03 02:27:35;;;;;;;8.73;8.03;;;13.10;99.90;;;;;;4898646;29;20430;-69
2022/06/03 02:30:25;;;;;;;9.10;8.40;;;13.10;99.90;;;;;;4905102;29;20934;-69
2022/06/03 02:33:21;;;;;;;8.33;7.73;;;13.10;99.90;;;;;;4917779;29;20427;-77
2022/06/03 02:36:11;;;;;;;8.33;7.33;;;13.20;99.90;;;;;;4901304;29;20411;-69
2022/06/03 02:38:58;;;;;;;7.97;7.17;;;13.20;99.90;;;;;;4917463;29;20451;-69
2022/06/03 02:41:58;;;;;;;8.37;7.70;;;13.20;99.90;;;;;;4917967;29;20865;-69
2022/06/03 02:45:03;;;;;;;7.93;6.60;;;13.20;99.90;;;;;;4917987;29;20526;-69
2022/06/03 02:47:51;;;;;;;8.07;7.40;;;13.20;99.90;;;;;;4900922;29;20935;-69
2022/06/03 02:50:35;;;;;;;8.60;7.80;;;13.20;99.90;;;;;;4917416;29;20461;-69
2022/06/03 02:53:22;;;;;;;8.70;7.93;;;13.10;99.90;;;;;;4917190;29;20738;-69
2022/06/03 02:56:15;;;;;;;8.27;7.50;;;13.10;99.90;;;;;;4917883;29;20404;-69
2022/06/03 02:59:07;;;;;;;8.87;8.17;;;13.10;99.90;;;;;;4916914;29;20432;-69
2022/06/03 03:01:42;;;;;;;8.43;7.73;;;13.10;99.90;;;;;;4911512;29;20539;-68
2022/06/03 03:04:26;;;;;;;8.77;8.07;;;13.10;99.90;;;;;;4915597;29;20965;-69
2022/06/03 03:07:20;;;;;;;7.93;7.33;;;13.10;99.90;;;;;;4917208;29;20397;-78
2022/06/03 03:10:24;;;;;;;8.50;7.70;;;13.00;99.90;;;;;;4917752;29;20482;-68
2022/06/03 03:13:09;;;;;;;8.40;7.70;;;12.70;99.90;;;;;;4917428;29;20411;-69
2022/06/03 03:16:25;;;;;;;8.70;7.80;;;12.60;99.90;;;;;;4917468;29;20752;-69
2022/06/03 03:19:09;;;;;;;9.20;8.50;;;12.50;99.90;;;;;;4874086;29;20494;-69
2022/06/03 03:21:47;;;;;;;8.60;7.90;;;12.50;99.90;;;;;;4894890;29;20462;-69
2022/06/03 03:24:27;;;;;;;8.90;8.10;;;12.50;99.90;;;;;;4876596;29;20460;-68
2022/06/03 03:27:00;;;;;;;8.60;8.00;;;12.30;99.90;;;;;;4881176;29;20532;-76
2022/06/03 03:29:58;;;;;;;10.20;9.20;;;12.20;99.90;;;;;;4896093;29;20893;-69
2022/06/03 03:32:48;;;;;;;9.00;8.30;;;12.20;99.90;;;;;;4895989;29;20517;-68
2022/06/03 03:35:20;;;;;;;8.90;8.20;;;12.20;99.90;;;;;;4895039;29;21067;-68
2022/06/03 03:38:17;;;;;;;8.90;8.10;;;12.30;99.90;;;;;;4893645;29;20498;-68
2022/06/03 03:40:49;;;;;;;8.90;8.20;;;12.40;99.90;;;;;;4846396;29;21077;-69
2022/06/03 03:44:13;;;;;;;9.80;8.90;;;12.50;99.90;;;;;;4895233;29;20544;-69
2022/06/03 03:47:14;;;;;;;8.97;8.27;;;12.60;99.90;;;;;;4802611;29;20438;-69
2022/06/03 03:50:17;;;;;;;9.10;8.30;;;12.70;99.90;;;;;;4768694;29;20499;-68
2022/06/03 03:53:43;;;;;;;10.37;9.67;;;12.70;99.90;;;;;;4829492;29;20436;-69
2022/06/03 03:56:58;;;;;;;9.13;8.43;;;12.60;99.90;;;;;;4788893;29;20496;-69
2022/06/03 03:59:55;;;;;;;10.03;9.23;;;12.70;99.90;;;;;;4839982;29;20414;-69
2022/06/03 04:02:45;;;;;;;8.83;8.13;;;12.70;99.90;;;;;;4838190;29;20474;-69
2022/06/03 04:05:53;;;;;;;9.93;9.13;;;12.70;99.90;;;;;;4823870;29;20427;-69
2022/06/03 04:08:40;;;;;;;9.60;8.70;;;12.70;99.90;;;;;;4837442;29;20443;-69
2022/06/03 04:11:33;;;;;;;11.20;10.10;;;12.70;99.90;;;;;;4838846;29;20827;-70
2022/06/03 04:14:22;;;;;;;9.70;8.90;;;12.70;99.90;;;;;;4838839;29;20529;-71
2022/06/03 04:17:06;;;;;;;10.20;9.50;;;12.80;99.90;;;;;;4858005;29;20422;-70
2022/06/03 04:19:55;;;;;;;11.47;10.37;;;12.90;99.90;;;;;;4902514;29;20460;-69
2022/06/03 04:22:51;;;;;;;10.00;9.00;;;13.00;99.90;;;;;;4898772;29;20483;-70
2022/06/03 04:25:54;;;;;;;11.67;10.53;;;13.00;99.90;;;;;;4898279;29;20930;-69
2022/06/03 04:28:53;;;;;;;10.30;9.40;;;13.00;99.90;;;;;;4920951;29;20426;-69
2022/06/03 04:31:24;;;;;;;9.90;9.00;;;13.00;99.90;;;;;;4915673;29;20406;-70
2022/06/03 04:34:11;;;;;;;10.43;9.40;;;12.80;99.90;;;;;;4914922;29;20444;-70
2022/06/03 04:36:40;;;;;;;11.00;10.00;;;12.80;99.90;;;;;;4928836;29;20465;-69
2022/06/03 04:39:47;;;;;;;11.33;10.30;;;12.80;99.90;;;;;;4927286;29;20775;-70
2022/06/03 04:42:25;;;;;;;10.07;9.27;;;12.90;99.90;;;;;;4903517;29;20902;-70
2022/06/03 04:45:27;;;;;;;9.87;8.70;;;12.90;99.90;;;;;;4899051;29;20435;-71
2022/06/03 04:48:24;;;;;;;9.53;8.50;;;13.00;99.90;;;;;;4916334;29;20765;-70
2022/06/03 04:51:28;;;;;;;9.97;9.00;;;13.10;99.90;;;;;;4913556;29;20929;-74
2022/06/03 04:54:20;;;;;;;10.13;9.20;;;13.10;99.90;;;;;;4916337;29;20456;-73
2022/06/03 04:57:23;;;;;;;9.60;8.70;;;13.10;99.90;;;;;;4913921;29;21008;-73
2022/06/03 05:00:11;;;;;;;13.50;11.40;;;12.90;99.90;;;;;;4896668;29;20396;-71
2022/06/03 05:02:42;;;;;;;18.70;14.80;;;13.00;99.90;;;;;;4904188;29;20811;-70
2022/06/03 05:05:45;;;;;;;11.40;10.37;;;13.00;99.90;;;;;;4912178;29;20438;-73
2022/06/03 05:08:26;;;;;;;9.33;8.53;;;13.00;99.90;;;;;;4914081;29;20461;-71
2022/06/03 05:11:22;;;;;;;8.37;7.67;;;12.90;99.90;;;;;;4914827;29;20467;-71
2022/06/03 05:14:03;;;;;;;8.73;7.93;;;12.90;99.90;;;;;;4913893;29;20434;-71
2022/06/03 05:16:29;;;;;;;10.30;9.40;;;12.70;99.90;;;;;;4912375;29;20789;-71
2022/06/03 05:18:55;;;;;;;9.53;8.73;;;12.80;99.90;;;;;;4913517;29;20466;-70
2022/06/03 05:21:33;;;;;;;9.27;8.57;;;12.80;99.90;;;;;;4914498;29;20217;-71
2022/06/03 05:24:17;;;;;;;8.60;7.93;;;12.80;99.90;;;;;;4906142;29;20951;-72
2022/06/03 05:27:04;;;;;;;10.30;9.30;;;12.80;99.90;;;;;;4914907;29;20445;-72
2022/06/03 05:29:45;;;;;;;9.67;8.67;;;12.80;99.90;;;;;;4915950;29;20431;-71
2022/06/03 05:32:32;;;;;;;10.40;8.40;;;12.80;99.90;;;;;;4915481;29;20449;-71
2022/06/03 05:35:28;;;;;;;12.50;9.53;;;12.90;99.90;;;;;;4914011;29;20768;-71
2022/06/03 05:37:59;;;;;;;9.40;8.60;;;12.90;99.90;;;;;;4915767;29;20901;-71
2022/06/03 05:40:49;;;;;;;8.63;7.93;;;12.90;99.90;;;;;;4917872;29;20508;-73
2022/06/03 05:43:31;;;;;;;7.90;7.30;;;13.00;99.90;;;;;;4901949;29;20454;-72
2022/06/03 05:45:57;;;;;;;7.77;7.07;;;13.10;99.90;;;;;;4919525;29;20415;-72
2022/06/03 05:48:44;;;;;;;8.17;7.47;;;13.10;99.90;;;;;;4918778;29;20425;-71
2022/06/03 05:51:41;;;;;;;7.20;6.57;;;13.10;99.90;;;;;;4916375;29;20199;-72
2022/06/03 05:54:26;;;;;;;7.70;7.10;;;13.20;99.90;;;;;;4891551;29;20443;-72
2022/06/03 05:57:24;;;;;;;6.87;6.27;;;13.30;99.90;;;;;;4909538;29;20450;-71
2022/06/03 06:00:09;;;;;;;7.37;6.87;;;13.40;99.90;;;;;;4876809;29;20436;-72
2022/06/03 06:02:48;;;;;;;7.93;7.33;;;13.50;99.90;;;;;;4918678;29;20956;-72
2022/06/03 06:05:37;;;;;;;6.37;5.90;;;13.60;99.90;;;;;;4929989;29;20432;-72
2022/06/03 06:08:40;;;;;;;7.43;6.83;;;13.70;99.90;;;;;;4924612;29;20445;-71
2022/06/03 06:11:19;;;;;;;6.90;6.40;;;13.90;99.90;;;;;;4921415;29;20948;-73
2022/06/03 06:13:45;;;;;;;7.23;6.53;;;14.00;99.90;;;;;;4902174;29;20441;-71
2022/06/03 06:16:21;;;;;;;7.37;6.87;;;14.00;99.90;;;;;;4918058;29;20446;-72
2022/06/03 06:19:10;;;;;;;7.83;7.33;;;14.00;99.90;;;;;;4914072;29;20319;-72
2022/06/03 06:21:48;;;;;;;7.60;7.00;;;14.10;99.90;;;;;;4937980;29;20493;-71
2022/06/03 06:24:34;;;;;;;7.20;6.60;;;14.20;99.90;;;;;;4937278;29;20409;-72
2022/06/03 06:27:37;;;;;;;7.30;6.80;;;14.40;99.90;;;;;;4937589;29;20424;-71
2022/06/03 06:30:31;;;;;;;6.90;6.30;;;14.50;99.90;;;;;;4933786;29;20433;-72
2022/06/03 06:33:06;;;;;;;6.37;5.97;;;14.60;99.90;;;;;;4936398;29;20441;-72
2022/06/03 06:35:44;;;;;;;7.77;7.07;;;14.80;99.90;;;;;;4918579;29;20471;-72
2022/06/03 06:38:36;;;;;;;7.33;6.93;;;14.90;99.90;;;;;;4925385;29;20747;-72
2022/06/03 06:41:17;;;;;;;7.67;6.17;;;15.10;99.90;;;;;;4937479;29;20502;-72
2022/06/03 06:44:09;;;;;;;7.97;7.27;;;15.20;99.90;;;;;;4937595;29;20397;-72
2022/06/03 06:46:44;;;;;;;6.10;5.50;;;15.30;99.90;;;;;;4937340;29;20408;-72
2022/06/03 06:49:24;;;;;;;6.90;6.30;;;15.40;99.90;;;;;;4935229;29;20443;-72
2022/06/03 06:52:22;;;;;;;6.73;6.17;;;15.60;99.90;;;;;;4917736;29;20505;-71
2022/06/03 06:55:16;;;;;;;6.53;5.93;;;15.70;99.80;;;;;;4910024;29;20466;-71
2022/06/03 06:57:51;;;;;;;6.93;6.27;;;15.90;99.90;;;;;;4926759;29;20914;-72
2022/06/03 07:00:28;;;;;;;6.60;6.20;;;16.10;99.90;;;;;;4932680;29;20444;-71
2022/06/03 07:02:54;;;;;;;5.00;4.70;;;16.20;99.40;;;;;;4936359;29;20440;-71
2022/06/03 07:05:27;;;;;;;5.83;5.43;;;16.40;99.50;;;;;;4935583;29;20948;-71
2022/06/03 07:08:00;;;;;;;6.43;5.67;;;16.60;98.90;;;;;;4934041;29;20541;-71
2022/06/03 07:10:52;;;;;;;5.30;5.00;;;16.80;99.20;;;;;;4935106;29;20509;-71
2022/06/03 07:13:31;;;;;;;5.20;4.90;;;16.90;97.40;;;;;;4934474;29;20489;-72
2022/06/03 07:16:10;;;;;;;5.33;5.00;;;17.10;97.30;;;;;;4936361;29;20814;-71
2022/06/03 07:22:04;;;;;;;5.60;5.10;;;17.50;96.80;;;;;;4917554;29;20474;-72
2022/06/03 07:24:52;;;;;;;4.83;4.53;;;17.60;96.20;;;;;;4897212;29;20478;-72
2022/06/03 07:27:26;;;;;;;6.00;5.50;;;17.80;95.60;;;;;;4917071;29;20422;-72
2022/06/03 07:30:26;;;;;;;5.13;4.73;;;18.00;95.20;;;;;;4917653;29;20433;-72
2022/06/03 07:33:13;;;;;;;5.77;5.33;;;18.10;94.30;;;;;;4917466;29;20493;-71
2022/06/03 07:35:52;;;;;;;6.13;5.53;;;18.20;95.30;;;;;;4917566;29;20422;-71
2022/06/03 07:38:26;;;;;;;6.23;5.83;;;18.40;94.40;;;;;;4916861;29;20418;-72
2022/06/03 07:41:04;;;;;;;6.03;5.50;;;18.60;94.50;;;;;;4917440;29;20965;-71
2022/06/03 07:43:44;;;;;;;6.57;6.00;;;18.80;95.30;;;;;;4867905;29;20437;-71
2022/06/03 07:46:28;;;;;;;6.30;5.80;;;18.90;94.50;;;;;;4916719;29;20418;-72
2022/06/03 07:48:53;;;;;;;6.03;5.43;;;19.10;94.80;;;;;;4917011;29;20431;-72
2022/06/03 07:51:35;;;;;;;6.67;6.17;;;19.30;94.60;;;;;;4916332;29;20430;-72
2022/06/03 07:54:18;;;;;;;6.53;6.13;;;19.40;94.90;;;;;;4917204;29;20247;-71
2022/06/03 07:56:44;;;;;;;5.73;5.23;;;19.60;94.00;;;;;;4917097;29;20808;-71
2022/06/03 07:59:19;;;;;;;5.83;5.43;;;19.70;93.20;;;;;;4916498;29;20410;-72
2022/06/03 08:01:58;;;;;;;5.70;5.33;;;19.90;93.40;;;;;;4917145;29;20206;-72
2022/06/03 08:04:29;;;;;;;5.23;4.93;;;20.10;92.60;;;;;;4915661;29;20406;-72
2022/06/03 08:12:34;;;;;;;5.50;5.03;;;20.30;91.10;;;;;;4916295;29;20411;-72
2022/06/03 08:15:14;;;;;;;6.70;6.03;;;20.30;91.10;;;;;;4916842;29;20403;-72
2022/06/03 08:17:41;;;;;;;4.77;4.57;;;20.40;91.00;;;;;;4916696;29;20414;-71
2022/06/03 08:20:07;;;;;;;7.33;5.10;;;20.40;91.70;;;;;;4916744;29;20865;-71
2022/06/03 08:22:33;;;;;;;5.50;4.97;;;20.60;92.10;;;;;;4916022;29;20561;-71
2022/06/03 08:25:00;;;;;;;5.37;5.10;;;20.70;91.10;;;;;;4916666;29;20418;-71
2022/06/03 08:27:30;;;;;;;5.53;5.03;;;20.80;91.10;;;;;;4915980;29;20812;-72
2022/06/03 08:30:20;;;;;;;5.07;4.73;;;20.90;88.50;;;;;;4916697;29;20407;-71
2022/06/03 08:32:53;;;;;;;4.90;4.60;;;20.90;90.20;;;;;;4916421;29;20975;-71
2022/06/03 08:35:23;;;;;;;5.17;4.60;;;20.90;88.70;;;;;;4916108;29;20818;-72
2022/06/03 08:38:10;;;;;;;5.53;5.13;;;21.10;90.10;;;;;;4916654;29;20772;-72
2022/06/03 08:40:58;;;;;;;5.00;4.70;;;21.20;89.90;;;;;;4916559;29;20776;-71
2022/06/03 08:43:36;;;;;;;4.53;4.23;;;21.40;90.30;;;;;;4915668;29;20899;-72
2022/06/03 08:46:45;;;;;;;5.03;4.83;;;21.50;89.20;;;;;;4916496;29;20501;-71
2022/06/03 08:49:18;;;;;;;4.60;4.40;;;21.70;86.60;;;;;;4857447;29;20924;-75
2022/06/03 08:51:51;;;;;;;4.50;4.30;;;21.80;90.50;;;;;;4910478;29;20918;-71
2022/06/03 08:54:20;;;;;;;5.20;4.80;;;22.00;90.70;;;;;;4915846;29;20447;-72
2022/06/03 08:56:49;;;;;;;5.00;4.70;;;22.10;90.00;;;;;;4916321;29;20445;-71
2022/06/03 08:59:50;;;;;;;7.00;6.50;;;22.40;91.00;;;;;;4915993;29;20437;-71
2022/06/03 09:02:26;;;;;;;5.30;5.00;;;22.50;88.60;;;;;;4883439;29;20482;-71
2022/06/03 09:05:00;;;;;;;6.13;5.00;;;22.50;84.80;;;;;;4916314;29;20438;-71
2022/06/03 09:07:35;;;;;;;5.50;5.10;;;22.70;87.70;;;;;;4916003;29;20414;-69
2022/06/03 09:10:24;;;;;;;6.53;6.03;;;22.90;85.60;;;;;;4899434;29;20422;-70
2022/06/03 09:13:37;;;;;;;6.80;6.30;;;23.10;89.00;;;;;;4916276;29;20411;-70
2022/06/03 09:16:06;;;;;;;6.70;5.90;;;23.30;86.00;;;;;;4861192;29;20925;-70
2022/06/03 09:18:36;;;;;;;6.87;6.37;;;23.30;83.50;;;;;;4912904;29;21067;-70
2022/06/03 09:21:27;;;;;;;8.00;7.40;;;23.40;84.60;;;;;;4919739;29;20541;-70
2022/06/03 09:24:09;;;;;;;6.90;6.40;;;23.50;84.70;;;;;;4912730;29;20794;-70
2022/06/03 09:26:46;;;;;;;5.67;5.40;;;23.60;85.80;;;;;;4919301;29;20514;-70
2022/06/03 09:29:14;;;;;;;7.73;7.40;;;23.70;83.00;;;;;;4919446;29;20742;-70
2022/06/03 09:31:47;;;;;;;8.10;7.70;;;23.70;82.30;;;;;;4919649;29;20422;-70
2022/06/03 09:34:14;;;;;;;6.00;5.70;;;23.80;83.90;;;;;;4919474;29;20418;-74
2022/06/03 09:36:40;;;;;;;6.30;6.00;;;23.90;84.50;;;;;;4919792;29;20433;-70
2022/06/03 09:39:14;;;;;;;6.60;6.10;;;24.00;81.80;;;;;;4919592;29;20898;-70
2022/06/03 09:41:53;;;;;;;5.37;5.07;;;24.00;81.80;;;;;;4919479;29;20486;-70
2022/06/03 09:44:23;;;;;;;5.80;5.50;;;24.10;80.90;;;;;;4918903;29;20403;-70
2022/06/03 09:47:00;;;;;;;7.33;6.80;;;24.10;81.20;;;;;;4919694;29;20414;-70
2022/06/03 09:49:48;;;;;;;4.97;4.73;;;24.20;79.90;;;;;;4879497;29;20427;-70
2022/06/03 09:52:19;;;;;;;5.67;5.37;;;24.40;82.90;;;;;;4879532;29;20528;-74
2022/06/03 09:54:46;;;;;;;5.80;5.50;;;24.50;82.50;;;;;;4879563;29;20424;-70
2022/06/03 09:57:32;;;;;;;6.73;6.23;;;24.50;79.00;;;;;;4879326;29;20439;-70
2022/06/03 10:00:08;;;;;;;5.40;5.10;;;24.60;77.70;;;;;;4879565;29;20511;-70
2022/06/03 10:02:35;;;;;;;5.60;5.23;;;24.50;74.90;;;;;;4878666;29;20456;-70
2022/06/03 10:05:03;;;;;;;5.40;5.00;;;24.50;76.90;;;;;;4879285;29;20924;-70
2022/06/03 10:07:29;;;;;;;6.93;6.53;;;24.60;81.40;;;;;;4878628;29;20416;-71
2022/06/03 10:12:53;;;;;;;6.70;6.20;;;24.80;75.60;;;;;;4878580;29;20433;-70
2022/06/03 10:15:42;;;;;;;6.90;6.40;;;24.90;77.60;;;;;;4862899;29;20437;-71
2022/06/03 10:18:34;;;;;;;10.73;9.77;;;24.80;75.60;;;;;;4878564;29;20615;-70
2022/06/03 10:21:06;;;;;;;6.30;5.90;;;24.90;76.70;;;;;;4903035;29;20564;-70
2022/06/03 10:23:45;;;;;;;5.80;5.50;;;25.00;77.60;;;;;;4918311;29;20946;-70
2022/06/03 10:26:28;;;;;;;7.13;6.63;;;25.00;73.70;;;;;;4917788;29;20417;-70
2022/06/03 10:28:56;;;;;;;8.17;7.53;;;25.00;75.60;;;;;;4918676;29;20407;-70
2022/06/03 10:31:29;;;;;;;6.40;6.00;;;25.00;73.40;;;;;;4901142;29;20838;-70
2022/06/03 10:34:10;;;;;;;6.10;5.80;;;24.90;74.50;;;;;;4918943;29;20403;-70
2022/06/03 10:36:42;;;;;;;6.30;5.90;;;24.90;72.70;;;;;;4918024;29;20777;-70
2022/06/03 10:39:09;;;;;;;5.87;5.50;;;24.90;74.00;;;;;;4918467;29;20474;-70
2022/06/03 10:41:49;;;;;;;6.93;6.50;;;24.90;70.00;;;;;;4917804;29;20509;-72
2022/06/03 10:44:24;;;;;;;6.93;6.43;;;25.00;74.10;;;;;;4918238;29;20403;-70
2022/06/03 10:47:05;;;;;;;6.30;6.00;;;24.90;72.00;;;;;;4918202;29;20411;-71
2022/06/03 10:49:35;;;;;;;6.90;6.40;;;25.00;72.90;;;;;;4917962;29;20438;-71
2022/06/03 11:03:28;;;;;;;7.10;6.60;;;25.00;71.00;;;;;;4918135;29;20455;-72
2022/06/03 11:05:55;;;;;;;6.00;5.50;;;24.90;72.00;;;;;;4918109;29;20454;-72
2022/06/03 11:08:21;;;;;;;5.63;5.33;;;24.90;72.20;;;;;;4900456;29;20450;-72
2022/06/03 11:10:53;;;;;;;5.50;5.20;;;25.00;75.00;;;;;;4918119;29;20821;-71
2022/06/03 11:13:39;;;;;;;5.80;5.30;;;25.10;74.50;;;;;;4917425;29;20448;-75
2022/06/03 11:16:19;;;;;;;4.57;4.30;;;25.00;69.30;;;;;;4917912;29;20766;-71
2022/06/03 11:18:45;;;;;;;5.27;5.07;;;24.90;70.30;;;;;;4912437;29;20532;-71
2022/06/03 11:21:29;;;;;;;5.80;5.50;;;24.90;73.20;;;;;;4936328;29;20473;-71
2022/06/03 11:23:59;;;;;;;6.07;5.67;;;25.00;75.70;;;;;;4936778;29;20205;-71
2022/06/03 11:26:41;;;;;;;4.77;4.57;;;25.10;72.90;;;;;;4936209;29;20512;-70
2022/06/03 11:29:32;;;;;;;5.83;5.53;;;25.30;72.60;;;;;;4918743;29;20422;-72
2022/06/03 11:32:02;;;;;;;6.20;5.90;;;25.40;72.30;;;;;;4936307;29;20410;-71
2022/06/03 11:34:41;;;;;;;5.33;5.10;;;25.40;69.10;;;;;;4934783;29;20457;-71
2022/06/03 11:37:20;;;;;;;5.83;5.33;;;25.40;70.60;;;;;;4936477;29;20414;-71
2022/06/03 11:39:58;;;;;;;5.80;5.40;;;25.50;73.60;;;;;;4936571;29;20464;-71
2022/06/03 11:42:55;;;;;;;5.30;5.10;;;25.60;69.40;;;;;;4935371;29;20464;-71
2022/06/03 11:45:26;;;;;;;5.40;5.10;;;25.50;66.40;;;;;;4936203;29;20975;-72
2022/06/03 11:48:03;;;;;;;6.43;5.87;;;25.50;69.40;;;;;;4936319;29;20768;-72
2022/06/03 11:50:29;;;;;;;5.43;4.70;;;25.40;66.30;;;;;;4935448;29;20432;-70
2022/06/03 11:52:56;;;;;;;5.37;4.93;;;25.40;67.70;;;;;;4936184;29;20501;-71
2022/06/03 11:55:25;;;;;;;4.30;4.10;;;25.40;65.50;;;;;;4935582;29;20818;-73
2022/06/03 11:58:05;;;;;;;4.60;4.30;;;25.20;66.30;;;;;;4918359;29;20418;-70
2022/06/03 12:00:37;;;;;;;5.73;5.20;;;25.20;68.00;;;;;;4933851;29;20524;-72
2022/06/03 12:03:22;;;;;;;4.33;4.13;;;25.10;67.40;;;;;;4926620;29;20804;-72
2022/06/03 12:06:00;;;;;;;5.27;4.97;;;25.20;71.50;;;;;;4901820;29;20438;-72
2022/06/03 12:08:41;;;;;;;4.93;4.63;;;25.30;67.40;;;;;;4933465;29;20757;-70
2022/06/03 12:14:27;;;;;;;4.50;4.30;;;25.60;69.90;;;;;;4935909;29;20413;-70
2022/06/03 12:17:10;;;;;;;5.17;4.90;;;25.70;68.30;;;;;;4934645;29;20533;-69
2022/06/03 12:19:43;;;;;;;5.87;4.83;;;25.70;67.60;;;;;;4932001;29;20469;-71
2022/06/03 12:22:30;;;;;;;5.23;4.70;;;25.60;65.50;;;;;;4929107;29;20461;-70
2022/06/03 12:24:57;;;;;;;5.20;5.00;;;25.50;65.10;;;;;;4933817;29;20805;-71
2022/06/03 12:27:38;;;;;;;6.20;5.43;;;25.50;66.90;;;;;;4931965;29;20945;-69
2022/06/03 12:30:14;;;;;;;4.90;4.70;;;25.40;64.40;;;;;;4932662;29;20430;-69
2022/06/03 12:33:07;;;;;;;5.60;5.30;;;25.20;64.60;;;;;;4930370;29;20560;-69
2022/06/03 12:35:47;;;;;;;5.67;5.37;;;25.00;64.70;;;;;;4915750;29;20426;-70
2022/06/03 12:38:30;;;;;;;5.20;4.80;;;24.80;64.30;;;;;;4899489;29;20422;-69
2022/06/03 12:40:58;;;;;;;5.83;5.20;;;24.60;66.10;;;;;;4916647;29;20513;-70
2022/06/03 12:43:30;;;;;;;5.37;5.13;;;24.60;69.40;;;;;;4922684;29;20422;-74
2022/06/03 12:46:00;;;;;;;4.83;4.63;;;24.60;68.90;;;;;;4935388;29;20437;-70
2022/06/03 12:48:47;;;;;;;5.40;5.00;;;24.70;68.90;;;;;;4934523;29;20433;-71
2022/06/03 12:51:23;;;;;;;4.60;4.30;;;24.70;67.80;;;;;;4941688;29;20790;-71
2022/06/03 12:53:52;;;;;;;4.90;4.70;;;24.60;65.50;;;;;;4940407;29;20425;-70
2022/06/03 12:56:23;;;;;;;4.83;4.63;;;24.60;67.50;;;;;;4941695;29;20405;-70
2022/06/03 12:59:36;;;;;;;4.50;4.30;;;24.50;66.10;;;;;;4940269;29;20436;-71
2022/06/03 13:02:18;;;;;;;5.63;5.20;;;24.60;67.00;;;;;;4920327;29;20477;-71
2022/06/03 13:04:47;;;;;;;5.20;4.90;;;24.50;65.90;;;;;;4938942;29;20444;-70
2022/06/03 13:07:25;;;;;;;5.47;5.17;;;24.30;66.70;;;;;;4941319;29;20456;-70
2022/06/03 13:09:56;;;;;;;5.03;4.80;;;24.30;68.50;;;;;;4940790;29;20416;-70
2022/06/03 13:12:21;;;;;;;6.77;5.13;;;24.40;68.40;;;;;;4882428;29;20587;-70
2022/06/03 13:14:47;;;;;;;4.60;4.20;;;24.40;66.80;;;;;;4881943;29;20532;-70
2022/06/03 13:17:53;;;;;;;5.17;4.67;;;24.40;69.10;;;;;;4882642;29;20699;-70
2022/06/03 13:20:32;;;;;;;5.00;4.50;;;24.50;66.90;;;;;;4882494;29;20279;-70
2022/06/03 13:22:58;;;;;;;4.87;4.67;;;24.50;68.60;;;;;;4882595;29;20466;-70
2022/06/03 13:25:26;;;;;;;5.70;5.30;;;24.60;71.80;;;;;;4882681;29;20970;-69
2022/06/03 13:28:30;;;;;;;5.10;4.90;;;24.80;69.30;;;;;;4882648;29;20903;-69
2022/06/03 13:31:19;;;;;;;5.27;4.87;;;25.00;67.70;;;;;;4882715;29;20423;-70
2022/06/03 13:34:29;;;;;;;5.40;5.10;;;25.20;70.40;;;;;;4881910;29;20435;-70
2022/06/03 13:37:17;;;;;;;5.63;5.33;;;25.30;69.00;;;;;;4827277;29;20441;-69
2022/06/03 13:39:43;;;;;;;4.83;4.50;;;25.40;65.60;;;;;;4881893;29;20491;-70
2022/06/03 13:45:01;;;;;;;4.80;4.60;;;25.10;67.00;;;;;;4866956;29;20427;-69
2022/06/03 13:47:31;;;;;;;5.13;4.93;;;25.20;67.90;;;;;;4882522;29;20412;-69
2022/06/03 13:50:17;;;;;;;4.80;4.50;;;25.20;63.40;;;;;;4915158;29;20429;-69
2022/06/03 13:52:56;;;;;;;5.70;5.40;;;25.30;65.20;;;;;;4940832;29;20421;-70
2022/06/03 13:55:27;;;;;;;5.07;4.87;;;25.40;65.80;;;;;;4940153;29;20440;-70
2022/06/03 13:58:02;;;;;;;4.93;4.60;;;25.30;67.10;;;;;;4940587;29;20445;-69
2022/06/03 14:00:36;;;;;;;5.43;5.10;;;25.10;63.80;;;;;;4940740;29;20804;-69
2022/06/03 14:03:04;;;;;;;5.33;5.13;;;24.90;63.80;;;;;;4938245;29;20448;-69
2022/06/03 14:06:07;;;;;;;5.40;5.10;;;25.00;66.00;;;;;;4937624;29;20823;-69
2022/06/03 14:08:43;;;;;;;5.47;5.17;;;25.00;64.40;;;;;;4933778;29;20468;-69
2022/06/03 14:11:16;;;;;;;4.87;4.67;;;24.90;64.70;;;;;;4938031;29;20416;-68
2022/06/03 14:14:00;;;;;;;5.90;5.60;;;24.90;67.30;;;;;;4937542;29;20410;-69
2022/06/03 14:16:43;;;;;;;5.53;5.23;;;25.00;68.60;;;;;;4937847;29;20453;-70
2022/06/03 14:19:09;;;;;;;5.10;4.77;;;25.00;70.50;;;;;;4929106;29;20462;-72
2022/06/03 14:21:38;;;;;;;4.70;4.50;;;25.10;69.00;;;;;;4917995;29;20960;-72
2022/06/03 14:24:41;;;;;;;5.70;5.20;;;24.90;67.40;;;;;;4918944;29;20191;-70
2022/06/03 14:27:31;;;;;;;7.23;6.80;;;24.20;70.00;;;;;;4916460;29;20418;-69
2022/06/03 14:30:17;;;;;;;17.87;16.10;;;23.90;70.10;;;;;;4898116;29;20430;-70
2022/06/03 14:32:51;;;;;;;24.93;22.47;;;23.70;70.30;;;;;;4912887;29;20751;-70
2022/06/03 14:35:26;;;;;;;21.77;19.73;;;23.70;71.40;;;;;;4918320;29;20418;-69
2022/06/03 14:37:59;;;;;;;31.43;27.97;;;23.80;70.90;;;;;;4916148;29;20445;-69
2022/06/03 14:40:31;;;;;;;5.13;4.83;;;23.70;70.60;;;;;;4920541;29;20990;-70
2022/06/03 14:42:59;;;;;;;5.37;5.00;;;23.60;70.90;;;;;;4926782;29;20562;-70